createdAt,value
2022-11-27T00:00:40.431Z,28.45
2022-11-27T00:06:05.300Z,25.50
2022-11-27T00:11:10.090Z,25.02
2022-11-27T00:16:14.262Z,25.33
2022-11-27T00:21:22.437Z,24.75
2022-11-27T00:26:26.804Z,27.88
2022-11-27T00:31:32.681Z,27.63
2022-11-27T00:36:38.423Z,26.08
2022-11-27T00:41:41.833Z,27.33
2022-11-27T00:46:45.322Z,25.52
2022-11-27T00:51:50.374Z,25.63
2022-11-27T00:56:53.949Z,26.83
2022-11-27T01:01:57.480Z,27.83
2022-11-27T01:07:02.476Z,29.13
2022-11-27T01:12:06.758Z,26.25
2022-11-27T01:17:10.124Z,27.42
2022-11-27T01:22:14.955Z,31.13
2022-11-27T01:27:18.325Z,32.72
2022-11-27T01:32:21.708Z,33.90
2022-11-27T01:37:29.067Z,32.38
2022-11-27T01:42:32.433Z,29.65
2022-11-27T01:47:44.210Z,29.50
2022-11-27T01:52:53.811Z,29.58
2022-11-27T01:58:01.866Z,29.02
2022-11-27T02:03:06.090Z,29.52
2022-11-27T02:08:13.488Z,29.88
2022-11-27T02:13:24.325Z,29.40
2022-11-27T02:18:35.575Z,31.17
2022-11-27T02:23:57.580Z,29.27
2022-11-27T02:29:06.624Z,29.05
2022-11-27T02:34:35.172Z,30.98
2022-11-27T02:39:49.675Z,30.23
2022-11-27T02:44:59.973Z,30.20
2022-11-27T02:50:04.671Z,29.35
2022-11-27T02:55:12.424Z,30.50
2022-11-27T03:00:18.570Z,31.65
2022-11-27T03:05:25.306Z,30.58
2022-11-27T03:10:35.092Z,30.98
2022-11-27T03:15:47.468Z,30.35
2022-11-27T03:20:59.783Z,31.57
2022-11-27T03:26:03.229Z,32.28
2022-11-27T03:31:08.216Z,32.33
2022-11-27T03:36:14.660Z,30.83
2022-11-27T03:41:24.715Z,30.63
2022-11-27T03:46:40.936Z,30.13
2022-11-27T03:51:53.570Z,29.40
2022-11-27T03:57:03.120Z,27.07
2022-11-27T04:02:12.591Z,30.00
2022-11-27T04:07:18.415Z,28.15
2022-11-27T04:12:21.825Z,27.98
2022-11-27T04:17:26.603Z,26.50
2022-11-27T04:22:30.042Z,28.52
2022-11-27T04:27:33.811Z,28.60
2022-11-27T04:32:38.823Z,27.70
2022-11-27T04:37:42.207Z,27.10
2022-11-27T04:42:45.893Z,27.30
2022-11-27T04:47:50.758Z,25.98
2022-11-27T04:52:54.104Z,25.92
2022-11-27T04:57:57.504Z,25.77
2022-11-27T05:03:02.509Z,26.40
2022-11-27T05:08:06.194Z,27.73
2022-11-27T05:13:09.835Z,29.13
2022-11-27T05:18:14.599Z,25.75
2022-11-27T05:23:17.991Z,25.15
2022-11-27T05:28:26.392Z,26.75
2022-11-27T05:33:31.706Z,25.83
2022-11-27T05:38:35.059Z,23.10
2022-11-27T05:43:38.431Z,24.70
2022-11-27T05:48:43.548Z,25.50
2022-11-27T05:53:47.092Z,23.95
2022-11-27T05:58:51.630Z,27.38
2022-11-27T06:03:56.484Z,27.27
2022-11-27T06:08:59.876Z,26.63
2022-11-27T06:14:03.274Z,22.15
2022-11-27T06:19:09.069Z,22.85
2022-11-27T06:24:12.480Z,22.85
2022-11-27T06:29:15.888Z,21.05
2022-11-27T06:34:20.753Z,24.45
2022-11-27T06:39:24.282Z,23.08
2022-11-27T06:44:27.788Z,25.02
2022-11-27T06:49:32.606Z,28.05
2022-11-27T06:54:35.990Z,26.60
2022-11-27T06:59:39.392Z,23.40
2022-11-27T07:04:45.056Z,28.90
2022-11-27T07:09:48.546Z,26.40
2022-11-27T07:14:51.921Z,27.23
2022-11-27T07:19:56.640Z,24.58
2022-11-27T07:25:00.139Z,21.80
2022-11-27T07:30:04.239Z,20.98
2022-11-27T07:35:10.053Z,23.92
2022-11-27T07:40:15.046Z,26.65
2022-11-27T07:45:19.082Z,24.58
2022-11-27T07:50:23.886Z,22.98
2022-11-27T07:55:27.379Z,18.92
2022-11-27T08:00:30.852Z,20.23
2022-11-27T08:05:37.234Z,21.70
2022-11-27T08:10:40.915Z,18.33
2022-11-27T08:15:46.116Z,18.77
2022-11-27T08:20:50.835Z,20.67
2022-11-27T08:25:54.237Z,20.13
2022-11-27T08:30:58.734Z,19.52
2022-11-27T08:36:04.232Z,18.13
2022-11-27T08:41:09.432Z,19.42
2022-11-27T08:46:13.426Z,15.50
2022-11-27T08:51:18.443Z,19.00
2022-11-27T08:56:25.072Z,18.58
2022-11-27T09:01:30.818Z,18.90
2022-11-27T09:06:36.668Z,17.58
2022-11-27T09:11:40.421Z,17.83
2022-11-27T09:16:43.897Z,16.42
2022-11-27T09:21:50.924Z,15.15
2022-11-27T09:26:54.429Z,14.95
2022-11-27T09:31:58.138Z,15.05
2022-11-27T09:37:02.916Z,15.75
2022-11-27T09:42:09.763Z,14.85
2022-11-27T09:47:20.777Z,17.02
2022-11-27T09:52:29.674Z,17.35
2022-11-27T09:57:37.424Z,16.27
2022-11-27T10:02:43.209Z,16.25
2022-11-27T10:08:12.103Z,16.60
2022-11-27T10:13:30.239Z,17.58
2022-11-27T10:18:40.271Z,17.45
2022-11-27T10:23:51.879Z,14.77
2022-11-27T10:29:02.065Z,13.43
2022-11-27T10:34:14.940Z,15.90
2022-11-27T10:39:33.386Z,17.55
2022-11-27T10:44:42.978Z,16.08
2022-11-27T10:49:49.173Z,16.40
2022-11-27T10:54:58.275Z,14.43
2022-11-27T11:00:08.063Z,15.57
2022-11-27T11:05:41.044Z,13.80
2022-11-27T11:10:53.062Z,12.82
2022-11-27T11:16:00.142Z,14.50
2022-11-27T11:21:07.126Z,13.82
2022-11-27T11:26:25.315Z,12.07
2022-11-27T11:31:34.619Z,12.80
2022-11-27T11:36:38.084Z,11.43
2022-11-27T11:41:47.330Z,12.32
2022-11-27T11:46:54.562Z,12.57
2022-11-27T11:52:21.128Z,14.68
2022-11-27T11:57:53.281Z,13.77
2022-11-27T12:03:19.442Z,12.80
2022-11-27T12:08:38.163Z,13.27
2022-11-27T12:13:56.318Z,13.70
2022-11-27T12:19:26.715Z,13.65
2022-11-27T12:24:40.652Z,13.00
2022-11-27T12:30:00.135Z,14.88
2022-11-27T12:35:20.270Z,12.18
2022-11-27T12:40:36.513Z,13.15
2022-11-27T12:45:47.282Z,12.57
2022-11-27T12:50:55.083Z,13.70
2022-11-27T12:56:07.860Z,13.27
2022-11-27T13:01:22.476Z,14.90
2022-11-27T13:06:32.515Z,15.82
2022-11-27T13:11:39.276Z,14.23
2022-11-27T13:16:47.549Z,15.02
2022-11-27T13:21:53.467Z,15.82
2022-11-27T13:27:09.752Z,15.52
2022-11-27T13:32:22.688Z,18.27
2022-11-27T13:37:30.518Z,16.55
2022-11-27T13:42:38.026Z,16.77
2022-11-27T13:47:45.182Z,17.25
2022-11-27T13:52:57.233Z,17.75
2022-11-27T13:58:02.824Z,18.77
2022-11-27T14:03:21.880Z,18.60
2022-11-27T14:08:28.014Z,19.13
2022-11-27T14:13:38.574Z,19.60
2022-11-27T14:18:52.114Z,19.90
2022-11-27T14:23:55.566Z,20.77
2022-11-27T14:29:01.491Z,19.40
2022-11-27T14:34:24.677Z,19.88
2022-11-27T14:39:31.428Z,20.30
2022-11-27T14:44:35.930Z,20.05
2022-11-27T14:49:42.196Z,19.85
2022-11-27T14:54:46.175Z,22.65
2022-11-27T14:59:49.587Z,23.05
2022-11-27T15:05:04.378Z,20.85
2022-11-27T15:10:32.553Z,23.30
2022-11-27T15:15:44.105Z,23.42
2022-11-27T15:20:49.858Z,22.98
2022-11-27T15:26:08.316Z,20.88
2022-11-27T15:31:29.687Z,19.05
2022-11-27T15:36:41.006Z,19.95
2022-11-27T15:41:55.939Z,20.02
2022-11-27T15:47:01.874Z,20.60
2022-11-27T15:52:06.742Z,20.48
2022-11-27T15:57:10.167Z,21.83
2022-11-27T16:02:17.733Z,21.27
2022-11-27T16:07:23.360Z,22.42
2022-11-27T16:12:26.853Z,21.60
2022-11-27T16:17:30.262Z,22.02
2022-11-27T16:22:35.061Z,22.38
2022-11-27T16:27:38.760Z,22.42
2022-11-27T16:32:42.147Z,23.02
2022-11-27T16:37:46.980Z,24.15
2022-11-27T16:42:50.377Z,24.65
2022-11-27T16:47:53.780Z,25.25
2022-11-27T16:52:58.670Z,25.83
2022-11-27T16:58:02.124Z,30.30
2022-11-27T17:03:05.586Z,32.78
2022-11-27T17:08:10.356Z,33.25
2022-11-27T17:13:13.966Z,31.63
2022-11-27T17:18:17.402Z,30.27
2022-11-27T17:23:22.566Z,28.83
2022-11-27T17:28:25.992Z,27.08
2022-11-27T17:33:29.482Z,27.73
2022-11-27T17:38:34.240Z,26.83
2022-11-27T17:43:39.179Z,27.63
2022-11-27T17:48:43.200Z,29.05
2022-11-27T17:53:48.633Z,26.63
2022-11-27T17:58:53.191Z,27.48
2022-11-27T18:03:59.928Z,26.83
2022-11-27T18:09:05.514Z,28.45
2022-11-27T18:14:09.372Z,29.08
2022-11-27T18:19:13.345Z,28.55
2022-11-27T18:24:23.578Z,27.83
2022-11-27T18:29:27.708Z,30.50
2022-11-27T18:34:31.270Z,28.45
2022-11-27T18:39:38.678Z,30.17
2022-11-27T18:44:45.134Z,32.83
2022-11-27T18:49:49.240Z,30.67
2022-11-27T18:54:54.090Z,30.20
2022-11-27T18:59:57.623Z,31.00
2022-11-27T19:05:01.125Z,30.42
2022-11-27T19:10:06.914Z,32.15
2022-11-27T19:15:11.314Z,32.08
2022-11-27T19:20:14.928Z,31.55
2022-11-27T19:25:20.000Z,29.42
2022-11-27T19:30:23.603Z,30.42
2022-11-27T19:35:27.033Z,32.08
2022-11-27T19:40:33.232Z,29.42
2022-11-27T19:45:37.930Z,28.63
2022-11-27T19:50:41.367Z,31.73
2022-11-27T19:55:53.043Z,31.23
2022-11-27T20:00:56.790Z,32.03
2022-11-27T20:06:05.556Z,32.00
2022-11-27T20:11:12.614Z,34.67
2022-11-27T20:16:17.890Z,35.13
2022-11-27T20:21:23.736Z,37.80
2022-11-27T20:26:30.975Z,35.85
2022-11-27T20:31:36.459Z,36.85
2022-11-27T20:36:41.173Z,35.58
2022-11-27T20:41:46.014Z,37.20
2022-11-27T20:46:49.657Z,35.83
2022-11-27T20:51:53.538Z,35.17
2022-11-27T20:56:58.359Z,33.53
2022-11-27T21:02:02.788Z,35.65
2022-11-27T21:07:06.488Z,36.97
2022-11-27T21:12:13.206Z,39.05
2022-11-27T21:17:16.683Z,35.55
2022-11-27T21:22:20.310Z,35.00
2022-11-27T21:27:25.675Z,36.65
2022-11-27T21:32:30.395Z,35.95
2022-11-27T21:37:33.763Z,34.88
2022-11-27T21:42:44.194Z,33.50
2022-11-27T21:47:47.964Z,35.63
2022-11-27T21:52:53.575Z,36.28
2022-11-27T21:57:59.460Z,36.30
2022-11-27T22:03:02.933Z,33.55
2022-11-27T22:08:06.631Z,32.90
2022-11-27T22:13:11.372Z,33.60
2022-11-27T22:18:15.005Z,35.47
2022-11-27T22:23:18.453Z,32.88
2022-11-27T22:28:23.546Z,34.83
2022-11-27T22:33:26.963Z,35.65
2022-11-27T22:38:30.357Z,36.80
2022-11-27T22:43:36.441Z,33.42
2022-11-27T22:48:39.836Z,34.22
2022-11-27T22:53:43.298Z,36.20
2022-11-27T22:58:48.315Z,34.67
2022-11-27T23:03:52.226Z,34.22
2022-11-27T23:08:56.015Z,34.65
2022-11-27T23:14:00.932Z,35.70
2022-11-27T23:19:04.325Z,32.17
2022-11-27T23:24:09.662Z,32.63
2022-11-27T23:29:15.084Z,33.85
2022-11-27T23:34:18.459Z,31.60
2022-11-27T23:39:21.909Z,31.80
2022-11-27T23:44:26.625Z,32.22
2022-11-27T23:49:30.184Z,33.70
2022-11-27T23:54:33.647Z,30.85
2022-11-27T23:59:38.802Z,32.08
